createdAt,value
2023-05-09T00:01:25.292Z,95486.66
2023-05-09T00:03:52.199Z,95484.44
2023-05-09T00:06:19.769Z,95483.28
2023-05-09T00:08:46.560Z,95485.59
2023-05-09T00:11:13.092Z,95483.81
2023-05-09T00:13:39.747Z,95477.50
2023-05-09T00:16:06.722Z,95480.94
2023-05-09T00:18:34.164Z,95473.06
2023-05-09T00:21:03.109Z,95475.06
2023-05-09T00:23:30.724Z,95455.72
2023-05-09T00:25:57.391Z,95468.56
2023-05-09T00:28:23.895Z,95468.66
2023-05-09T00:30:51.065Z,95461.22
2023-05-09T00:33:17.744Z,95458.00
2023-05-09T00:35:44.350Z,95457.63
2023-05-09T00:38:11.046Z,95464.13
2023-05-09T00:40:37.829Z,95456.25
2023-05-09T00:43:04.956Z,95465.34
2023-05-09T00:45:31.773Z,95455.53
2023-05-09T00:47:58.476Z,95460.06
2023-05-09T00:50:25.150Z,95455.59
2023-05-09T00:52:51.914Z,95459.78
2023-05-09T00:55:19.668Z,95457.53
2023-05-09T00:57:46.317Z,95455.66
2023-05-09T01:00:13.694Z,95453.78
2023-05-09T01:02:45.700Z,95450.38
2023-05-09T01:05:12.868Z,95450.41
2023-05-09T01:07:44.886Z,95446.59
2023-05-09T01:10:30.094Z,95451.13
2023-05-09T01:13:09.919Z,95451.91
2023-05-09T01:16:06.489Z,95453.38
2023-05-09T01:18:38.736Z,95448.50
2023-05-09T01:21:11.262Z,95439.09
2023-05-09T01:23:44.271Z,95434.16
2023-05-09T01:26:52.187Z,95432.28
2023-05-09T01:29:36.657Z,95435.31
2023-05-09T01:32:07.731Z,95444.34
2023-05-09T01:34:35.667Z,95437.56
2023-05-09T01:37:04.826Z,95436.06
2023-05-09T01:39:33.893Z,95445.84
2023-05-09T01:42:03.486Z,95432.28
2023-05-09T01:44:35.948Z,95422.88
2023-05-09T01:47:03.924Z,95426.25
2023-05-09T01:49:32.836Z,95417.97
2023-05-09T01:52:03.884Z,95416.84
2023-05-09T01:54:31.642Z,95407.03
2023-05-09T01:56:59.815Z,95406.63
2023-05-09T01:59:28.588Z,95417.94
2023-05-09T02:01:56.562Z,95411.16
2023-05-09T02:04:24.027Z,95414.19
2023-05-09T02:06:51.927Z,95414.94
2023-05-09T02:09:20.129Z,95408.91
2023-05-09T02:11:47.150Z,95414.91
2023-05-09T02:14:14.445Z,95408.91
2023-05-09T02:16:41.158Z,95413.44
2023-05-09T02:19:07.927Z,95408.16
2023-05-09T02:21:34.642Z,95399.84
2023-05-09T02:24:01.513Z,95400.63
2023-05-09T02:26:28.981Z,95402.50
2023-05-09T02:28:56.617Z,95402.88
2023-05-09T02:31:27.955Z,95397.22
2023-05-09T02:33:55.325Z,95386.28
2023-05-09T02:36:22.607Z,95394.94
2023-05-09T02:38:49.459Z,95388.56
2023-05-09T02:41:17.313Z,95388.53
2023-05-09T02:43:43.905Z,95381.75
2023-05-09T02:46:10.983Z,95387.81
2023-05-09T02:48:37.767Z,95391.56
2023-05-09T02:51:04.561Z,95395.34
2023-05-09T02:53:31.290Z,95392.72
2023-05-09T02:55:58.669Z,95393.06
2023-05-09T02:58:25.368Z,95386.66
2023-05-09T03:00:51.948Z,95396.09
2023-05-09T03:03:19.270Z,95392.31
2023-05-09T03:05:46.421Z,95399.09
2023-05-09T03:08:12.973Z,95388.16
2023-05-09T03:10:39.607Z,95385.53
2023-05-09T03:13:06.207Z,95386.63
2023-05-09T03:15:32.804Z,95392.63
2023-05-09T03:17:59.431Z,95391.13
2023-05-09T03:20:26.878Z,95389.56
2023-05-09T03:22:53.474Z,95391.50
2023-05-09T03:25:20.115Z,95388.44
2023-05-09T03:27:46.705Z,95384.63
2023-05-09T03:30:13.885Z,95375.97
2023-05-09T03:32:40.380Z,95385.00
2023-05-09T03:35:07.345Z,95381.63
2023-05-09T03:37:33.892Z,95385.00
2023-05-09T03:40:00.402Z,95386.88
2023-05-09T03:42:26.872Z,95377.81
2023-05-09T03:44:53.411Z,95378.25
2023-05-09T03:47:19.970Z,95368.44
2023-05-09T03:49:46.825Z,95380.13
2023-05-09T03:52:13.600Z,95381.59
2023-05-09T03:54:40.248Z,95387.63
2023-05-09T03:57:07.193Z,95380.06
2023-05-09T03:59:33.768Z,95385.72
2023-05-09T04:02:00.501Z,95380.78
2023-05-09T04:04:27.574Z,95382.97
2023-05-09T04:06:54.236Z,95382.97
2023-05-09T04:09:20.826Z,95383.69
2023-05-09T04:11:47.369Z,95382.84
2023-05-09T04:14:13.996Z,95380.59
2023-05-09T04:16:40.559Z,95370.38
2023-05-09T04:19:07.301Z,95361.25
2023-05-09T04:21:33.956Z,95361.56
2023-05-09T04:24:00.705Z,95360.75
2023-05-09T04:26:27.408Z,95361.47
2023-05-09T04:28:53.972Z,95361.16
2023-05-09T04:31:21.203Z,95372.06
2023-05-09T04:33:47.790Z,95369.03
2023-05-09T04:36:14.408Z,95367.88
2023-05-09T04:38:41.040Z,95367.56
2023-05-09T04:41:07.618Z,95369.13
2023-05-09T04:43:34.285Z,95363.75
2023-05-09T04:46:01.334Z,95364.03
2023-05-09T04:48:27.947Z,95358.41
2023-05-09T04:50:54.546Z,95374.91
2023-05-09T04:53:21.118Z,95370.44
2023-05-09T04:55:47.671Z,95364.53
2023-05-09T04:58:14.212Z,95364.53
2023-05-09T05:00:41.103Z,95368.25
2023-05-09T05:03:07.713Z,95352.03
2023-05-09T05:05:37.445Z,95369.84
2023-05-09T05:08:04.829Z,95361.53
2023-05-09T05:10:31.429Z,95359.91
2023-05-09T05:12:58.113Z,95368.19
2023-05-09T05:15:24.796Z,95372.59
2023-05-09T05:17:51.491Z,95375.38
2023-05-09T05:20:18.200Z,95373.47
2023-05-09T05:22:44.692Z,95371.91
2023-05-09T05:25:11.877Z,95362.91
2023-05-09T05:27:38.559Z,95377.69
2023-05-09T05:30:05.757Z,95365.47
2023-05-09T05:32:32.416Z,95366.16
2023-05-09T05:34:59.064Z,95355.53
2023-05-09T05:37:26.101Z,95353.63
2023-05-09T05:39:52.782Z,95361.25
2023-05-09T05:42:19.307Z,95363.38
2023-05-09T05:44:45.892Z,95368.19
2023-05-09T05:47:12.395Z,95361.66
2023-05-09T05:49:39.387Z,95360.59
2023-05-09T05:52:06.007Z,95359.75
2023-05-09T05:54:32.585Z,95350.84
2023-05-09T05:56:59.126Z,95356.22
2023-05-09T05:59:25.669Z,95354.28
2023-05-09T06:01:52.290Z,95351.81
2023-05-09T06:04:18.936Z,95353.69
2023-05-09T06:06:49.552Z,95342.34
2023-05-09T06:09:17.563Z,95344.59
2023-05-09T06:11:44.080Z,95345.53
2023-05-09T06:14:10.605Z,95329.06
2023-05-09T06:16:37.237Z,95332.88
2023-05-09T06:19:04.792Z,95329.22
2023-05-09T06:21:34.195Z,95324.19
2023-05-09T06:24:08.473Z,95324.09
2023-05-09T06:26:38.736Z,95325.75
2023-05-09T06:29:08.245Z,95317.56
2023-05-09T06:31:40.199Z,95321.66
2023-05-09T06:34:07.112Z,95312.03
2023-05-09T06:36:34.937Z,95320.16
2023-05-09T06:39:01.993Z,95311.03
2023-05-09T06:41:28.538Z,95315.59
2023-05-09T06:43:56.538Z,95296.94
2023-05-09T06:46:23.251Z,95286.50
2023-05-09T06:48:49.884Z,95289.91
2023-05-09T06:51:16.524Z,95288.31
2023-05-09T06:53:43.102Z,95291.00
2023-05-09T06:56:09.742Z,95286.09
2023-05-09T06:58:36.996Z,95291.09
2023-05-09T07:01:04.607Z,95273.28
2023-05-09T07:03:31.185Z,95278.25
2023-05-09T07:05:59.026Z,95281.03
2023-05-09T07:08:26.680Z,95280.28
2023-05-09T07:10:53.661Z,95280.00
2023-05-09T07:13:21.300Z,95277.19
2023-05-09T07:15:48.012Z,95269.50
2023-05-09T07:18:14.666Z,95265.91
2023-05-09T07:20:41.325Z,95268.44
2023-05-09T07:23:07.872Z,95263.97
2023-05-09T07:25:34.978Z,95255.09
2023-05-09T07:28:01.497Z,95246.13
2023-05-09T07:30:28.035Z,95254.38
2023-05-09T07:32:54.621Z,95246.19
2023-05-09T07:35:21.326Z,95240.28
2023-05-09T07:37:47.985Z,95233.75
2023-05-09T07:40:15.207Z,95230.00
2023-05-09T07:42:46.283Z,95236.19
2023-05-09T07:45:13.115Z,95225.75
2023-05-09T07:47:39.875Z,95223.88
2023-05-09T07:50:07.010Z,95220.56
2023-05-09T07:52:34.081Z,95225.53
2023-05-09T07:55:01.721Z,95223.28
2023-05-09T07:57:28.205Z,95228.50
2023-05-09T07:59:54.822Z,95227.53
2023-05-09T08:02:21.383Z,95221.16
2023-05-09T08:04:49.081Z,95216.88
2023-05-09T08:07:16.136Z,95208.59
2023-05-09T08:09:42.758Z,95216.00
2023-05-09T08:12:09.390Z,95219.28
2023-05-09T08:14:36.055Z,95213.94
2023-05-09T08:17:02.611Z,95203.09
2023-05-09T08:19:29.214Z,95199.72
2023-05-09T08:21:56.064Z,95196.28
2023-05-09T08:24:22.623Z,95197.41
2023-05-09T08:26:49.185Z,95186.44
2023-05-09T08:29:16.519Z,95189.59
2023-05-09T08:31:43.432Z,95183.22
2023-05-09T08:34:10.100Z,95190.03
2023-05-09T08:36:37.042Z,95185.31
2023-05-09T08:39:04.434Z,95175.50
2023-05-09T08:41:35.989Z,95174.06
2023-05-09T08:44:03.420Z,95167.16
2023-05-09T08:46:36.939Z,95159.47
2023-05-09T08:49:07.286Z,95157.91
2023-05-09T08:51:35.717Z,95164.00
2023-05-09T08:54:02.907Z,95159.63
2023-05-09T08:56:31.466Z,95153.63
2023-05-09T08:58:59.130Z,95150.13
2023-05-09T09:01:29.308Z,95158.53
2023-05-09T09:03:56.615Z,95143.00
2023-05-09T09:06:25.988Z,95135.91
2023-05-09T09:08:56.299Z,95134.94
2023-05-09T09:11:23.146Z,95133.94
2023-05-09T09:13:53.017Z,95126.47
2023-05-09T09:16:21.487Z,95119.75
2023-05-09T09:18:48.450Z,95128.63
2023-05-09T09:21:19.327Z,95120.88
2023-05-09T09:23:47.913Z,95113.59
2023-05-09T09:26:16.550Z,95107.91
2023-05-09T09:28:43.274Z,95107.59
2023-05-09T09:31:24.401Z,95096.94
2023-05-09T09:33:51.710Z,95096.59
2023-05-09T09:36:36.872Z,95105.97
2023-05-09T09:39:05.024Z,95098.91
2023-05-09T09:41:33.441Z,95089.09
2023-05-09T09:44:07.314Z,95077.81
2023-05-09T09:47:01.096Z,95076.88
2023-05-09T09:49:27.736Z,95075.91
2023-05-09T09:51:59.083Z,95075.84
2023-05-09T09:54:29.318Z,95072.19
2023-05-09T09:56:56.689Z,95064.66
2023-05-09T09:59:25.679Z,95037.09
2023-05-09T10:02:07.016Z,95054.31
2023-05-09T10:04:37.030Z,95046.84
2023-05-09T10:07:06.331Z,95049.38
2023-05-09T10:09:34.791Z,95041.13
2023-05-09T10:12:06.494Z,95029.91
2023-05-09T10:14:35.808Z,95027.81
2023-05-09T10:17:05.243Z,95029.88
2023-05-09T10:19:33.292Z,95020.47
2023-05-09T10:22:05.622Z,95027.25
2023-05-09T10:24:48.384Z,95017.81
2023-05-09T10:27:18.022Z,95002.31
2023-05-09T10:29:49.228Z,94997.09
2023-05-09T10:32:21.186Z,95002.09
2023-05-09T10:34:57.572Z,94988.34
2023-05-09T10:37:25.226Z,94996.22
2023-05-09T10:39:53.735Z,95000.72
2023-05-09T10:42:20.576Z,94995.88
2023-05-09T10:44:48.096Z,94989.59
2023-05-09T10:47:15.532Z,94991.72
2023-05-09T10:49:43.563Z,94985.34
2023-05-09T10:52:10.175Z,94980.06
2023-05-09T10:54:37.467Z,94978.84
2023-05-09T10:57:05.745Z,94969.19
2023-05-09T10:59:45.540Z,94961.38
2023-05-09T11:02:19.887Z,94963.84
2023-05-09T11:04:46.740Z,94950.19
2023-05-09T11:07:30.189Z,94951.81
2023-05-09T11:10:20.097Z,94939.97
2023-05-09T11:13:00.189Z,94945.84
2023-05-09T11:15:29.976Z,94953.56
2023-05-09T11:18:12.306Z,94926.44
2023-05-09T11:20:48.421Z,94929.41
2023-05-09T11:23:25.661Z,94928.56
2023-05-09T11:25:53.363Z,94931.41
2023-05-09T11:28:30.988Z,94915.78
2023-05-09T11:31:12.111Z,94922.72
2023-05-09T11:33:39.728Z,94924.41
2023-05-09T11:36:15.644Z,94915.09
2023-05-09T11:38:42.977Z,94904.16
2023-05-09T11:41:09.614Z,94897.06
2023-05-09T11:43:42.556Z,94891.09
2023-05-09T11:46:09.125Z,94899.94
2023-05-09T11:48:39.956Z,94888.59
2023-05-09T11:51:07.576Z,94891.00
2023-05-09T11:53:34.392Z,94882.47
2023-05-09T11:56:06.357Z,94872.84
2023-05-09T11:58:32.913Z,94866.78
2023-05-09T12:01:00.971Z,94868.88
2023-05-09T12:03:27.778Z,94870.13
2023-05-09T12:05:56.111Z,94862.53
2023-05-09T12:08:28.612Z,94855.94
2023-05-09T12:10:55.318Z,94868.75
2023-05-09T12:13:21.986Z,94867.59
2023-05-09T12:15:48.709Z,94853.72
2023-05-09T12:18:17.056Z,94860.50
2023-05-09T12:20:50.501Z,94852.44
2023-05-09T12:23:19.105Z,94849.94
2023-05-09T12:26:04.027Z,94849.47
2023-05-09T12:30:59.584Z,94848.19
2023-05-09T12:33:26.758Z,94842.28
2023-05-09T12:36:10.277Z,94840.81
2023-05-09T12:38:37.758Z,94838.47
2023-05-09T12:41:21.830Z,94832.97
2023-05-09T12:43:56.501Z,94827.34
2023-05-09T12:46:23.188Z,94831.50
2023-05-09T12:48:50.377Z,94828.59
2023-05-09T12:51:21.241Z,94820.78
2023-05-09T12:53:48.653Z,94828.78
2023-05-09T12:56:17.675Z,94825.22
2023-05-09T12:58:51.801Z,94835.47
2023-05-09T13:01:36.910Z,94828.09
2023-05-09T13:04:05.757Z,94829.69
2023-05-09T13:06:32.914Z,94833.38
2023-05-09T13:09:01.554Z,94831.97
2023-05-09T13:11:31.492Z,94819.75
2023-05-09T13:13:58.794Z,94825.25
2023-05-09T13:16:25.439Z,94822.78
2023-05-09T13:18:52.284Z,94812.69
2023-05-09T13:21:19.335Z,94806.47
2023-05-09T13:23:46.136Z,94791.94
2023-05-09T13:26:12.956Z,94798.31
2023-05-09T13:28:39.559Z,94788.16
2023-05-09T13:31:07.015Z,94796.09
2023-05-09T13:33:33.843Z,94805.28
2023-05-09T13:36:00.881Z,94795.34
2023-05-09T13:38:31.826Z,94783.69
2023-05-09T13:40:59.761Z,94786.66
2023-05-09T13:43:27.482Z,94783.16
2023-05-09T13:45:54.129Z,94779.09
2023-05-09T13:48:20.927Z,94776.88
2023-05-09T13:50:47.626Z,94780.94
2023-05-09T13:53:14.364Z,94766.44
2023-05-09T13:55:40.984Z,94780.47
2023-05-09T13:58:07.773Z,94775.16
2023-05-09T14:00:34.600Z,94778.78
2023-05-09T14:03:03.033Z,94785.41
2023-05-09T14:05:32.554Z,94778.88
2023-05-09T14:07:59.259Z,94783.38
2023-05-09T14:10:27.226Z,94782.78
2023-05-09T14:12:54.228Z,94776.63
2023-05-09T14:15:21.253Z,94778.84
2023-05-09T14:17:48.284Z,94776.09
2023-05-09T14:20:18.381Z,94781.72
2023-05-09T14:22:45.116Z,94771.50
2023-05-09T14:25:11.778Z,94779.38
2023-05-09T14:27:38.590Z,94767.16
2023-05-09T14:30:05.591Z,94773.88
2023-05-09T14:32:32.878Z,94769.72
2023-05-09T14:34:59.650Z,94774.75
2023-05-09T14:37:26.186Z,94769.72
2023-05-09T14:39:52.739Z,94769.72
2023-05-09T14:42:19.866Z,94772.03
2023-05-09T14:44:47.569Z,94775.00
2023-05-09T14:47:18.119Z,94755.22
2023-05-09T14:49:44.761Z,94768.50
2023-05-09T14:52:11.497Z,94771.13
2023-05-09T14:54:38.133Z,94762.50
2023-05-09T14:57:05.496Z,94759.97
2023-05-09T14:59:36.137Z,94751.09
2023-05-09T15:02:03.856Z,94725.13
2023-05-09T15:04:31.875Z,94740.59
2023-05-09T15:06:59.103Z,94753.44
2023-05-09T15:09:26.754Z,94733.31
2023-05-09T15:11:54.054Z,94752.44
2023-05-09T15:14:20.773Z,94753.56
2023-05-09T15:16:47.408Z,94745.31
2023-05-09T15:19:14.795Z,94753.91
2023-05-09T15:21:41.590Z,94752.53
2023-05-09T15:24:09.664Z,94749.84
2023-05-09T15:26:36.997Z,94755.28
2023-05-09T15:29:03.748Z,94761.25
2023-05-09T15:31:33.265Z,94756.75
2023-05-09T15:34:00.717Z,94752.06
2023-05-09T15:36:30.262Z,94758.13
2023-05-09T15:38:57.126Z,94755.72
2023-05-09T15:41:23.912Z,94758.59
2023-05-09T15:43:50.900Z,94754.91
2023-05-09T15:46:17.999Z,94757.59
2023-05-09T15:48:44.678Z,94755.22
2023-05-09T15:51:11.953Z,94755.00
2023-05-09T15:53:38.659Z,94761.66
2023-05-09T15:56:05.612Z,94772.47
2023-05-09T15:58:32.161Z,94755.44
2023-05-09T16:00:58.724Z,94767.34
2023-05-09T16:03:25.580Z,94754.28
2023-05-09T16:05:53.018Z,94763.78
2023-05-09T16:08:19.478Z,94757.97
2023-05-09T16:10:49.021Z,94757.09
2023-05-09T16:13:17.825Z,94755.94
2023-05-09T16:15:45.480Z,94749.16
2023-05-09T16:18:12.270Z,94752.91
2023-05-09T16:20:38.884Z,94750.22
2023-05-09T16:23:05.418Z,94745.59
2023-05-09T16:25:33.454Z,94750.78
2023-05-09T16:28:01.837Z,94760.22
2023-05-09T16:30:28.478Z,94758.28
2023-05-09T16:32:55.203Z,94760.63
2023-05-09T16:35:21.964Z,94761.72
2023-05-09T16:37:48.652Z,94763.38
2023-05-09T16:40:15.413Z,94761.78
2023-05-09T16:42:42.960Z,94759.63
2023-05-09T16:45:10.033Z,94757.81
2023-05-09T16:47:40.163Z,94761.28
2023-05-09T16:50:07.507Z,94754.38
2023-05-09T16:52:34.672Z,94758.78
2023-05-09T16:55:01.524Z,94761.41
2023-05-09T16:57:28.055Z,94760.72
2023-05-09T16:59:54.698Z,94744.19
2023-05-09T17:02:21.391Z,94757.44
2023-05-09T17:04:48.157Z,94754.94
2023-05-09T17:07:15.579Z,94758.19
2023-05-09T17:09:43.277Z,94761.59
2023-05-09T17:12:16.321Z,94763.09
2023-05-09T17:14:43.089Z,94756.72
2023-05-09T17:17:09.802Z,94761.84
2023-05-09T17:19:36.855Z,94744.28
2023-05-09T17:22:05.838Z,94774.16
2023-05-09T17:24:32.542Z,94767.50
2023-05-09T17:26:59.283Z,94763.28
2023-05-09T17:29:30.683Z,94767.16
2023-05-09T17:32:00.746Z,94762.50
2023-05-09T17:34:28.560Z,94756.06
2023-05-09T17:36:55.338Z,94771.25
2023-05-09T17:39:23.248Z,94758.84
2023-05-09T17:41:49.848Z,94759.72
2023-05-09T17:44:16.712Z,94752.41
2023-05-09T17:46:44.087Z,94755.09
2023-05-09T17:49:14.008Z,94755.97
2023-05-09T17:51:41.187Z,94755.56
2023-05-09T17:54:10.829Z,94753.72
2023-05-09T17:56:37.402Z,94756.66
2023-05-09T17:59:03.908Z,94754.53
2023-05-09T18:01:30.494Z,94757.44
2023-05-09T18:03:57.282Z,94755.16
2023-05-09T18:06:24.184Z,94749.88
2023-05-09T18:08:51.184Z,94753.69
2023-05-09T18:11:17.973Z,94748.94
2023-05-09T18:13:44.624Z,94743.44
2023-05-09T18:16:11.252Z,94750.91
2023-05-09T18:18:37.996Z,94749.16
2023-05-09T18:21:05.429Z,94751.72
2023-05-09T18:23:32.044Z,94746.56
2023-05-09T18:25:58.772Z,94733.94
2023-05-09T18:28:25.877Z,94751.13
2023-05-09T18:30:57.473Z,94749.84
2023-05-09T18:33:25.305Z,94750.09
2023-05-09T18:35:54.148Z,94752.41
2023-05-09T18:38:21.310Z,94752.50
2023-05-09T18:40:48.262Z,94747.38
2023-05-09T18:43:16.519Z,94753.44
2023-05-09T18:45:44.996Z,94754.31
2023-05-09T18:48:11.556Z,94751.91
2023-05-09T18:50:38.105Z,94764.59
2023-05-09T18:53:04.714Z,94759.31
2023-05-09T18:55:31.387Z,94763.31
2023-05-09T18:57:58.008Z,94773.72
2023-05-09T19:00:24.549Z,94765.25
2023-05-09T19:02:51.683Z,94781.66
2023-05-09T19:05:18.324Z,94777.84
2023-05-09T19:07:44.995Z,94778.03
2023-05-09T19:10:11.643Z,94777.34
2023-05-09T19:12:38.338Z,94782.31
2023-05-09T19:15:05.473Z,94782.47
2023-05-09T19:17:32.133Z,94792.56
2023-05-09T19:19:58.664Z,94795.03
2023-05-09T19:22:25.311Z,94805.63
2023-05-09T19:24:52.008Z,94798.66
2023-05-09T19:27:19.084Z,94802.63
2023-05-09T19:29:47.525Z,94802.56
2023-05-09T19:32:17.855Z,94807.94
2023-05-09T19:34:44.488Z,94800.13
2023-05-09T19:37:10.971Z,94797.53
2023-05-09T19:39:37.531Z,94809.69
2023-05-09T19:42:04.066Z,94811.72
2023-05-09T19:44:30.640Z,94811.19
2023-05-09T19:46:58.503Z,94812.75
2023-05-09T19:49:25.026Z,94810.31
2023-05-09T19:51:51.563Z,94807.00
2023-05-09T19:54:18.174Z,94812.59
2023-05-09T19:56:45.821Z,94821.44
2023-05-09T19:59:12.409Z,94820.69
2023-05-09T20:01:39.027Z,94806.09
2023-05-09T20:04:06.262Z,94817.97
2023-05-09T20:06:32.847Z,94829.34
2023-05-09T20:08:59.311Z,94819.28
2023-05-09T20:11:25.799Z,94818.13
2023-05-09T20:13:52.326Z,94821.03
2023-05-09T20:16:21.087Z,94816.00
2023-05-09T20:18:48.729Z,94817.69
2023-05-09T20:21:16.504Z,94811.06
2023-05-09T20:23:43.052Z,94811.59
2023-05-09T20:26:09.974Z,94820.94
2023-05-09T20:28:36.605Z,94814.50
2023-05-09T20:31:03.357Z,94822.19
2023-05-09T20:33:29.990Z,94821.63
2023-05-09T20:35:56.496Z,94807.44
2023-05-09T20:38:23.031Z,94819.13
2023-05-09T20:40:49.499Z,94817.69
2023-05-09T20:43:16.007Z,94804.47
2023-05-09T20:45:43.002Z,94814.91
2023-05-09T20:48:09.536Z,94809.03
2023-05-09T20:50:36.242Z,94807.97
2023-05-09T20:53:02.761Z,94813.09
2023-05-09T20:55:29.271Z,94804.38
2023-05-09T20:57:55.722Z,94811.06
2023-05-09T21:00:22.218Z,94814.16
2023-05-09T21:02:48.814Z,94814.97
2023-05-09T21:05:15.477Z,94828.88
2023-05-09T21:07:41.942Z,94820.00
2023-05-09T21:10:10.227Z,94820.78
2023-05-09T21:12:37.070Z,94821.09
2023-05-09T21:15:03.820Z,94821.56
2023-05-09T21:17:30.350Z,94818.75
2023-05-09T21:19:56.828Z,94830.25
2023-05-09T21:22:23.474Z,94832.69
2023-05-09T21:24:50.847Z,94844.13
2023-05-09T21:27:17.579Z,94839.47
2023-05-09T21:29:44.044Z,94839.06
2023-05-09T21:32:10.760Z,94840.84
2023-05-09T21:34:37.247Z,94842.47
2023-05-09T21:37:03.803Z,94839.81
2023-05-09T21:39:32.432Z,94837.28
2023-05-09T21:41:59.875Z,94840.31
2023-05-09T21:44:26.404Z,94842.91
2023-05-09T21:46:52.956Z,94842.69
2023-05-09T21:49:21.568Z,94838.91
2023-05-09T21:51:48.229Z,94845.22
2023-05-09T21:54:14.728Z,94844.75
2023-05-09T21:56:42.519Z,94847.88
2023-05-09T21:59:09.490Z,94857.50
2023-05-09T22:01:36.036Z,94852.34
2023-05-09T22:04:02.603Z,94860.88
2023-05-09T22:06:29.274Z,94857.13
2023-05-09T22:08:55.766Z,94852.34
2023-05-09T22:11:22.306Z,94851.94
2023-05-09T22:13:48.841Z,94869.72
2023-05-09T22:16:15.468Z,94860.22
2023-05-09T22:18:42.211Z,94869.72
2023-05-09T22:21:08.723Z,94867.13
2023-05-09T22:23:35.689Z,94869.09
2023-05-09T22:26:02.139Z,94879.16
2023-05-09T22:28:28.602Z,94874.09
2023-05-09T22:30:55.153Z,94874.44
2023-05-09T22:33:21.866Z,94876.50
2023-05-09T22:35:49.192Z,94878.13
2023-05-09T22:38:15.834Z,94884.03
2023-05-09T22:40:42.396Z,94891.34
2023-05-09T22:43:10.503Z,94893.69
2023-05-09T22:45:37.316Z,94879.66
2023-05-09T22:48:04.022Z,94882.81
2023-05-09T22:50:30.800Z,94893.00
2023-05-09T22:52:57.326Z,94896.81
2023-05-09T22:55:23.936Z,94900.22
2023-05-09T22:57:50.641Z,94902.53
2023-05-09T23:00:18.193Z,94905.13
2023-05-09T23:02:45.059Z,94902.94
2023-05-09T23:05:11.634Z,94911.91
2023-05-09T23:07:38.237Z,94911.66
2023-05-09T23:10:05.313Z,94917.19
2023-05-09T23:12:32.094Z,94917.78
2023-05-09T23:14:58.757Z,94916.28
2023-05-09T23:17:25.496Z,94916.25
2023-05-09T23:19:52.067Z,94911.47
2023-05-09T23:22:18.732Z,94905.03
2023-05-09T23:24:45.358Z,94893.84
2023-05-09T23:27:12.127Z,94906.00
2023-05-09T23:29:38.713Z,94910.91
2023-05-09T23:32:05.360Z,94894.44
2023-05-09T23:34:31.883Z,94902.81
2023-05-09T23:36:58.433Z,94900.66
2023-05-09T23:39:24.968Z,94899.03
2023-05-09T23:41:51.494Z,94898.38
2023-05-09T23:44:18.128Z,94888.66
2023-05-09T23:46:44.742Z,94887.97
2023-05-09T23:49:13.278Z,94887.84
2023-05-09T23:51:40.066Z,94883.50
2023-05-09T23:54:07.403Z,94881.84
2023-05-09T23:56:34.034Z,94875.88
2023-05-09T23:59:00.803Z,94883.00
